KGFA/GFA METAR and TAF weather

Enter ICAO airport designator
Station Type Date Time Source
KGFA METAR 2021/09/23 22:58 UTC NOAA

KGFA 232258Z AUTO 28013G18KT 10SM CLR 22/M06 A3015 RMK AO2 SLP206 T02151059 $


Station Type Date Time Source
KGFA Decoded METAR 2021/09/23 22:58 UTC NOAA

Malmstrom Air Force Base, MT, United States (KGFA) 47-30N 111-11W
Sep 23, 2021 - 06:58 PM EDT / 2021.09.23 2258 UTC
Wind: from the W (280 degrees) at 15 MPH (13 KT) gusting to 21 MPH (18 KT):0
Visibility: 10 mile(s):0
Sky conditions: clear
Temperature: 70.7 F (21.5 C)
Dew Point: 21.4 F (-5.9 C)
Relative Humidity: 15%
Pressure (altimeter): 30.15 in. Hg (1020 hPa)
ob: KGFA 232258Z AUTO 28013G18KT 10SM CLR 22/M06 A3015 RMK AO2 SLP206 T02151059
cycle: 23

Station Type Date Time Source
KGFA TAF 2021/09/23 11:04 UTC NOAA

TAF KGFA 231100Z 2311/2417 25006KT 9999 SKC QNH3007INS
BECMG 2320/2321 28010G15KT 9999 SKC QNH3010INS
BECMG 2402/2403 VRB06KT 9999 FEW085 QNH3018INS TX22/2322Z TN05/2411Z

Example: see airport list